Time;durP1;ratioP1;P1;durP2;ratioP2;P2;SDS_P1;SDS_P2;PMS_P1;PMS_P2;Temp;Humidity;BMP_temperature;BMP_pressure;BME280_temperature;BME280_humidity;BME280_pressure;Samples;Min_cycle;Max_cycle;Signal;HPM_P1;HPM_P2
2023/09/04 00:01:00;;;;;;;4.92;3.85;;;;;;;19.90;55.67;100656.66;1677147;85;21051;-66
2023/09/04 00:03:29;;;;;;;7.22;4.08;;;;;;;19.93;55.75;100663.66;1676856;85;21051;-66
2023/09/04 00:05:59;;;;;;;5.47;4.25;;;;;;;19.92;55.76;100656.41;1677124;85;21079;-67
2023/09/04 00:08:28;;;;;;;7.17;4.75;;;;;;;19.92;55.69;100658.64;1677120;85;21114;-65
2023/09/04 00:10:58;;;;;;;6.37;4.10;;;;;;;19.91;55.79;100661.13;1676907;85;21051;-66
2023/09/04 00:13:26;;;;;;;7.42;4.53;;;;;;;19.89;55.89;100663.33;1676940;84;21115;-66
2023/09/04 00:15:56;;;;;;;6.67;4.22;;;;;;;19.89;55.94;100670.82;1681974;85;22067;-66
2023/09/04 00:18:25;;;;;;;5.17;3.80;;;;;;;19.87;56.04;100669.69;1684901;85;21047;-66
2023/09/04 00:20:55;;;;;;;9.35;4.42;;;;;;;19.84;56.15;100672.97;1684870;84;21045;-68
2023/09/04 00:23:23;;;;;;;5.20;4.22;;;;;;;19.82;56.09;100675.70;1684663;84;21110;-65
2023/09/04 00:25:54;;;;;;;7.62;4.30;;;;;;;19.81;55.92;100678.20;1684841;84;21042;-65
2023/09/04 00:28:24;;;;;;;6.25;4.45;;;;;;;19.76;56.16;100670.61;1684925;85;21485;-64
2023/09/04 00:30:54;;;;;;;6.72;4.35;;;;;;;19.76;56.19;100676.17;1684935;85;21090;-66
2023/09/04 00:33:24;;;;;;;5.83;3.95;;;;;;;19.77;56.13;100675.08;1684916;85;21045;-65
2023/09/04 00:35:53;;;;;;;5.05;4.17;;;;;;;19.80;56.08;100678.73;1684660;84;21090;-66
2023/09/04 00:38:21;;;;;;;6.05;4.10;;;;;;;19.81;56.07;100680.42;1684813;85;21070;-65
2023/09/04 00:40:50;;;;;;;7.17;4.08;;;;;;;19.78;56.17;100676.76;1684811;85;21110;-66
2023/09/04 00:43:19;;;;;;;6.20;4.20;;;;;;;19.75;56.30;100675.88;1684707;84;21066;-67
2023/09/04 00:45:47;;;;;;;5.05;4.03;;;;;;;19.76;56.20;100665.59;1684941;84;21067;-65
2023/09/04 00:48:16;;;;;;;6.17;4.28;;;;;;;19.75;56.14;100673.09;1684893;84;21094;-65
2023/09/04 00:50:47;;;;;;;6.78;4.15;;;;;;;19.75;56.34;100669.47;1684753;84;21471;-67
2023/09/04 00:53:16;;;;;;;5.42;3.98;;;;;;;19.73;56.42;100671.66;1684852;85;21471;-66
2023/09/04 00:55:44;;;;;;;4.53;3.70;;;;;;;19.72;56.16;100667.19;1683951;84;21062;-67
2023/09/04 00:58:13;;;;;;;5.87;3.90;;;;;;;19.72;55.82;100663.02;1684914;84;21091;-66
2023/09/04 01:00:43;;;;;;;4.62;3.52;;;;;;;19.70;55.42;100670.22;1684844;85;21529;-67
2023/09/04 01:03:13;;;;;;;7.33;4.05;;;;;;;19.72;55.16;100670.81;1684836;85;21059;-67
2023/09/04 01:05:43;;;;;;;5.45;3.92;;;;;;;19.72;55.08;100674.98;1661555;85;21058;-67
2023/09/04 01:08:13;;;;;;;5.65;3.60;;;;;;;19.73;55.02;100675.28;1684961;85;21043;-66
2023/09/04 01:10:50;;;;;;;5.75;3.92;;;;;;;19.73;54.78;100675.83;1661681;85;21078;-66
2023/09/04 01:13:28;;;;;;;6.37;3.62;;;;;;;19.72;54.85;100669.97;1684937;85;21035;-67
2023/09/04 01:15:58;;;;;;;5.75;3.65;;;;;;;19.71;54.86;100676.08;1680316;85;21114;-67
2023/09/04 01:18:29;;;;;;;7.20;3.87;;;;;;;19.73;54.66;100673.89;1681973;84;21059;-66
2023/09/04 01:21:04;;;;;;;6.30;3.60;;;;;;;19.72;54.59;100676.38;1677073;85;21051;-67
2023/09/04 01:23:34;;;;;;;4.95;3.15;;;;;;;19.71;54.61;100674.69;1676819;85;21091;-67
2023/09/04 01:26:29;;;;;;;6.62;3.87;;;;;;;19.71;54.53;100673.30;1677122;85;21228;-66
2023/09/04 01:29:37;;;;;;;5.78;3.70;;;;;;;19.72;54.28;100674.98;1677057;85;21023;-66
2023/09/04 01:32:17;;;;;;;4.72;3.70;;;;;;;19.70;54.17;100673.00;1676822;85;21128;-66
2023/09/04 01:34:48;;;;;;;5.00;3.27;;;;;;;19.69;54.25;100672.70;1676771;85;21475;-66
2023/09/04 01:37:17;;;;;;;4.50;3.50;;;;;;;19.68;54.23;100672.41;1676916;85;21075;-66
2023/09/04 01:39:46;;;;;;;7.22;3.95;;;;;;;19.68;54.16;100673.80;1676971;85;21087;-68
2023/09/04 01:42:14;;;;;;;6.28;3.77;;;;;;;19.66;54.07;100669.04;1676871;85;21071;-67
2023/09/04 01:44:43;;;;;;;7.80;4.00;;;;;;;19.65;54.02;100673.46;1677030;85;21094;-66
2023/09/04 01:47:12;;;;;;;6.45;3.90;;;;;;;19.65;53.99;100674.30;1677091;85;21231;-66
2023/09/04 01:49:42;;;;;;;5.67;3.70;;;;;;;19.63;53.99;100670.93;1676989;85;21015;-65
2023/09/04 01:52:11;;;;;;;5.47;3.65;;;;;;;19.63;54.08;100673.71;1677203;85;21432;-67
2023/09/04 01:54:41;;;;;;;7.00;3.83;;;;;;;19.63;54.03;100679.27;1676842;85;21523;-66
2023/09/04 01:57:10;;;;;;;5.62;3.80;;;;;;;19.61;54.03;100675.91;1676822;85;21047;-66
2023/09/04 01:59:39;;;;;;;5.87;4.08;;;;;;;19.57;54.10;100674.72;1676861;85;21533;-67
2023/09/04 02:02:08;;;;;;;5.53;3.80;;;;;;;19.55;54.20;100682.46;1676797;85;21158;-65
2023/09/04 02:04:37;;;;;;;4.50;3.50;;;;;;;19.55;54.21;100682.46;1676854;85;21091;-66
2023/09/04 02:07:06;;;;;;;5.62;3.85;;;;;;;19.54;54.27;100687.72;1676943;85;21491;-66
2023/09/04 02:09:34;;;;;;;4.87;3.92;;;;;;;19.53;54.34;100692.44;1677067;85;21130;-66
2023/09/04 02:12:05;;;;;;;5.30;3.70;;;;;;;19.53;54.32;100692.98;1677097;85;21067;-67
2023/09/04 02:14:34;;;;;;;6.53;3.70;;;;;;;19.51;54.44;100702.09;1676952;84;21176;-67
2023/09/04 02:17:03;;;;;;;5.70;4.05;;;;;;;19.47;54.54;100693.92;1683563;85;21158;-67
2023/09/04 02:19:34;;;;;;;5.50;3.92;;;;;;;19.45;54.60;100696.95;1684883;84;21099;-65
2023/09/04 02:22:03;;;;;;;7.22;3.90;;;;;;;19.43;54.54;100692.19;1661905;85;21051;-66
2023/09/04 02:24:33;;;;;;;5.17;3.70;;;;;;;19.43;54.52;100692.19;1684948;85;21019;-66
2023/09/04 02:27:03;;;;;;;6.42;3.98;;;;;;;19.43;54.52;100692.19;1684822;85;21139;-67
2023/09/04 02:29:32;;;;;;;6.37;4.25;;;;;;;19.42;54.46;100696.60;1685031;84;21062;-66
2023/09/04 02:32:00;;;;;;;5.80;3.90;;;;;;;19.42;54.58;100693.28;1684818;85;21062;-67
2023/09/04 02:34:30;;;;;;;5.55;4.33;;;;;;;19.43;54.58;100692.73;1684754;85;21081;-67
2023/09/04 02:36:59;;;;;;;5.60;3.70;;;;;;;19.39;54.71;100690.16;1684981;85;21361;-67
2023/09/04 02:39:27;;;;;;;5.47;3.83;;;;;;;19.34;55.00;100688.13;1684962;84;21483;-66
2023/09/04 02:41:56;;;;;;;6.03;4.00;;;;;;;19.33;55.18;100684.50;1684844;85;21007;-67
2023/09/04 02:44:25;;;;;;;6.42;3.47;;;;;;;19.32;55.30;100682.81;1684782;85;21054;-66
2023/09/04 02:46:54;;;;;;;5.70;4.03;;;;;;;19.31;55.32;100677.50;1684744;85;21082;-66
2023/09/04 02:49:23;;;;;;;6.40;3.77;;;;;;;19.30;55.26;100679.44;1684856;85;21529;-66
2023/09/04 02:51:53;;;;;;;5.17;3.58;;;;;;;19.27;55.19;100684.65;1684910;84;21059;-66
2023/09/04 02:54:22;;;;;;;5.08;3.90;;;;;;;19.24;55.21;100690.16;1684952;85;21083;-65
2023/09/04 02:56:51;;;;;;;6.67;3.92;;;;;;;19.23;55.29;100690.41;1684815;84;21114;-65
2023/09/04 02:59:21;;;;;;;7.47;4.33;;;;;;;19.19;55.54;100692.83;1684988;85;21047;-66
2023/09/04 03:01:50;;;;;;;6.35;4.08;;;;;;;19.16;55.74;100694.72;1684704;85;21142;-67
2023/09/04 03:04:19;;;;;;;5.30;3.58;;;;;;;19.16;55.93;100695.27;1684755;84;21596;-66
2023/09/04 03:06:50;;;;;;;5.53;4.22;;;;;;;19.13;56.14;100696.59;1684865;85;21106;-66
2023/09/04 03:09:19;;;;;;;4.50;3.37;;;;;;;19.10;56.34;100686.53;1684986;84;21043;-66
2023/09/04 03:11:49;;;;;;;5.95;3.87;;;;;;;19.09;56.55;100698.19;1684762;84;21039;-65
2023/09/04 03:14:19;;;;;;;6.37;3.87;;;;;;;19.09;56.62;100694.02;1684026;84;21066;-66
2023/09/04 03:16:48;;;;;;;6.67;4.20;;;;;;;19.05;56.76;100694.75;1684660;85;21070;-66
2023/09/04 03:19:17;;;;;;;7.55;4.17;;;;;;;19.03;56.92;100696.39;1661089;85;21502;-66
2023/09/04 03:21:46;;;;;;;6.40;4.00;;;;;;;19.02;56.99;100696.09;1684728;84;21051;-67
2023/09/04 03:24:15;;;;;;;5.85;3.95;;;;;;;19.02;56.94;100689.16;1684904;85;21159;-66
2023/09/04 03:26:44;;;;;;;7.80;4.05;;;;;;;19.00;57.10;100692.72;1684739;84;21565;-67
2023/09/04 03:29:14;;;;;;;7.10;4.00;;;;;;;18.99;57.16;100691.88;1684991;85;21345;-66
2023/09/04 03:31:46;;;;;;;6.10;4.08;;;;;;;18.97;57.29;100694.05;1684743;84;21536;-66
2023/09/04 03:34:15;;;;;;;6.95;4.20;;;;;;;18.98;57.35;100693.51;1685026;84;21210;-66
2023/09/04 03:36:44;;;;;;;7.20;4.95;;;;;;;18.98;57.49;100692.13;1684830;85;21562;-67
2023/09/04 03:39:12;;;;;;;5.80;4.40;;;;;;;18.98;57.54;100697.67;1684738;84;21067;-66
2023/09/04 03:41:41;;;;;;;7.78;4.33;;;;;;;18.97;57.60;100696.83;1684910;85;21063;-66
2023/09/04 03:44:10;;;;;;;7.25;4.25;;;;;;;18.96;57.72;100699.31;1684802;85;21067;-66
2023/09/04 03:46:39;;;;;;;6.97;4.35;;;;;;;18.95;57.76;100702.34;1685051;84;21062;-66
2023/09/04 03:49:08;;;;;;;8.23;4.10;;;;;;;18.93;57.92;100703.97;1684684;84;21074;-67
2023/09/04 03:51:37;;;;;;;5.95;3.83;;;;;;;18.92;57.95;100704.22;1684774;84;21114;-71
2023/09/04 03:54:05;;;;;;;8.53;4.47;;;;;;;18.92;57.91;100704.22;1684920;84;21075;-66
2023/09/04 03:56:35;;;;;;;8.35;4.35;;;;;;;18.92;57.98;100712.00;1684765;84;21039;-67
2023/09/04 03:59:04;;;;;;;8.55;4.00;;;;;;;18.94;58.20;100708.98;1684942;84;21094;-67
2023/09/04 04:01:34;;;;;;;8.30;4.87;;;;;;;18.94;58.44;100709.82;1684756;84;21839;-66
2023/09/04 04:04:03;;;;;;;6.87;4.17;;;;;;;18.92;58.46;100700.05;1684677;84;21122;-70
2023/09/04 04:06:32;;;;;;;6.05;4.17;;;;;;;18.93;58.52;100705.90;1684751;85;21472;-67
2023/09/04 04:09:03;;;;;;;7.37;5.10;;;;;;;18.95;58.59;100714.83;1684768;85;21507;-67
2023/09/04 04:11:33;;;;;;;7.45;4.90;;;;;;;18.96;58.65;100715.13;1684894;84;21026;-68
2023/09/04 04:14:02;;;;;;;8.35;4.50;;;;;;;18.97;58.69;100719.05;1684892;85;21015;-66
2023/09/04 04:16:34;;;;;;;8.03;4.65;;;;;;;18.97;58.73;100724.61;1681928;84;21109;-67
2023/09/04 04:19:04;;;;;;;6.72;4.37;;;;;;;18.98;58.79;100719.89;1677102;85;21043;-66
2023/09/04 04:21:33;;;;;;;5.65;4.10;;;;;;;18.98;58.79;100721.28;1676868;85;21513;-66
2023/09/04 04:24:04;;;;;;;9.28;5.10;;;;;;;18.97;58.82;100719.05;1677032;85;21055;-67
2023/09/04 04:26:34;;;;;;;8.68;5.30;;;;;;;18.94;59.11;100727.03;1676910;85;21492;-68
2023/09/04 04:29:04;;;;;;;6.28;4.90;;;;;;;18.90;59.50;100727.22;1677061;85;21729;-67
2023/09/04 04:31:34;;;;;;;29.90;5.85;;;;;;;18.89;59.78;100721.36;1677024;85;21032;-68
2023/09/04 04:34:04;;;;;;;24.82;5.75;;;;;;;18.88;59.70;100716.36;1659363;85;21488;-67
2023/09/04 04:36:33;;;;;;;6.55;4.75;;;;;;;18.88;59.76;100716.90;1677278;85;21417;-67
2023/09/04 04:39:03;;;;;;;8.38;5.30;;;;;;;18.86;59.83;100720.47;1677077;85;21111;-67
2023/09/04 04:41:33;;;;;;;9.35;5.50;;;;;;;18.86;59.89;100718.53;1677109;85;21016;-68
2023/09/04 04:44:04;;;;;;;9.03;5.47;;;;;;;18.84;60.07;100724.84;1676998;85;21178;-67
2023/09/04 04:46:33;;;;;;;12.03;5.83;;;;;;;18.83;60.11;100723.70;1659120;85;21099;-67
2023/09/04 04:49:03;;;;;;;10.95;5.42;;;;;;;18.82;60.24;100730.34;1677095;85;21044;-67
2023/09/04 04:51:31;;;;;;;6.40;4.92;;;;;;;18.80;60.80;100728.34;1677010;85;21035;-67
2023/09/04 04:54:02;;;;;;;7.58;5.40;;;;;;;18.77;60.90;100722.74;1676850;85;21044;-68
2023/09/04 04:56:32;;;;;;;8.00;5.60;;;;;;;18.79;60.91;100731.67;1677007;85;21071;-67
2023/09/04 04:59:02;;;;;;;9.93;5.15;;;;;;;18.79;60.94;100726.13;1677096;85;21482;-67
2023/09/04 05:01:31;;;;;;;10.88;5.87;;;;;;;18.80;61.08;100726.42;1676756;85;21095;-66
2023/09/04 05:04:02;;;;;;;7.22;5.20;;;;;;;18.79;61.25;100737.22;1676819;85;21102;-66
2023/09/04 05:06:30;;;;;;;7.47;5.45;;;;;;;18.79;61.43;100733.60;1676956;85;21127;-67
2023/09/04 05:09:00;;;;;;;11.83;5.80;;;;;;;18.78;61.56;100742.48;1676975;85;21139;-66
2023/09/04 05:11:30;;;;;;;8.65;5.92;;;;;;;18.76;61.72;100738.25;1676834;85;21087;-68
2023/09/04 05:14:01;;;;;;;9.78;5.75;;;;;;;18.76;61.83;100738.25;1676980;85;21043;-69
2023/09/04 05:16:30;;;;;;;8.85;6.00;;;;;;;18.79;61.88;100737.77;1678563;85;21063;-66
2023/09/04 05:18:59;;;;;;;12.80;6.50;;;;;;;18.80;61.99;100746.40;1684680;84;21067;-66
2023/09/04 05:21:27;;;;;;;10.18;5.83;;;;;;;18.80;62.09;100748.63;1684804;84;21043;-66
2023/09/04 05:23:56;;;;;;;9.90;6.65;;;;;;;18.82;62.07;100746.45;1684864;85;21102;-66
2023/09/04 05:26:26;;;;;;;8.43;5.97;;;;;;;18.84;62.06;100746.20;1684647;85;21050;-66
2023/09/04 05:28:54;;;;;;;10.03;6.00;;;;;;;18.88;62.01;100750.22;1684804;84;21545;-67
2023/09/04 05:31:23;;;;;;;9.60;5.83;;;;;;;18.90;61.89;100753.05;1684612;85;21498;-67
2023/09/04 05:33:52;;;;;;;7.58;5.55;;;;;;;18.91;61.96;100753.89;1684708;85;21066;-66
2023/09/04 05:36:21;;;;;;;12.93;5.80;;;;;;;18.90;62.11;100757.77;1684827;84;21548;-66
2023/09/04 05:38:50;;;;;;;11.50;6.25;;;;;;;18.91;62.13;100768.63;1685048;85;21047;-69
2023/09/04 05:41:18;;;;;;;12.55;6.40;;;;;;;18.92;62.19;100768.08;1684799;85;21055;-68
2023/09/04 05:43:47;;;;;;;9.83;5.72;;;;;;;18.92;62.32;100770.31;1684868;84;21058;-69
2023/09/04 05:46:16;;;;;;;8.03;5.62;;;;;;;18.92;62.50;100768.92;1684795;84;21015;-68
2023/09/04 05:48:45;;;;;;;9.58;5.90;;;;;;;18.95;62.33;100773.15;1684741;85;21083;-67
2023/09/04 05:51:14;;;;;;;10.40;5.67;;;;;;;19.01;62.35;100776.34;1684716;84;21066;-68
2023/09/04 05:53:43;;;;;;;9.73;5.85;;;;;;;19.05;62.32;100780.31;1661763;85;21114;-68
2023/09/04 05:56:13;;;;;;;10.23;5.42;;;;;;;19.08;62.24;100773.42;1684927;85;21467;-67
2023/09/04 05:58:48;;;;;;;8.28;5.83;;;;;;;19.12;62.07;100776.86;1684770;84;21499;-68
2023/09/04 06:01:20;;;;;;;9.68;5.78;;;;;;;19.17;61.86;100778.90;1685031;84;21106;-68
2023/09/04 06:03:50;;;;;;;11.10;5.70;;;;;;;19.21;61.78;100771.22;1684858;84;21071;-68
2023/09/04 06:06:20;;;;;;;9.75;6.40;;;;;;;19.30;61.56;100777.23;1684962;84;21051;-67
2023/09/04 06:08:49;;;;;;;9.23;5.67;;;;;;;19.40;61.33;100782.16;1684764;84;21091;-69
2023/09/04 06:11:18;;;;;;;10.03;6.17;;;;;;;19.50;60.96;100782.36;1684969;84;21109;-67
2023/09/04 06:13:48;;;;;;;7.65;5.20;;;;;;;19.57;60.66;100783.13;1684888;85;21031;-67
2023/09/04 06:16:22;;;;;;;7.85;5.20;;;;;;;19.68;60.26;100789.73;1684707;85;21535;-67
2023/09/04 06:18:48;;;;;;;8.88;5.45;;;;;;;19.78;59.99;100791.31;1684296;84;21157;-67
2023/09/04 06:21:17;;;;;;;7.15;4.75;;;;;;;19.84;59.41;100792.55;1684859;85;21136;-68
2023/09/04 06:23:46;;;;;;;10.55;5.28;;;;;;;19.91;59.00;100792.40;1684602;85;21507;-67
2023/09/04 06:26:14;;;;;;;10.38;5.58;;;;;;;19.98;58.76;100793.09;1684902;85;21086;-67
2023/09/04 06:28:44;;;;;;;6.62;4.40;;;;;;;20.06;58.47;100791.28;1684772;84;21138;-67
2023/09/04 06:31:13;;;;;;;8.08;5.05;;;;;;;20.15;58.21;100793.11;1684882;85;21090;-67
2023/09/04 06:33:43;;;;;;;8.70;5.20;;;;;;;20.22;58.05;100791.04;1684868;85;21043;-67
2023/09/04 06:36:13;;;;;;;9.13;5.67;;;;;;;20.28;57.95;100798.38;1683939;84;21104;-68
2023/09/04 06:38:42;;;;;;;8.33;5.37;;;;;;;20.34;57.85;100799.30;1684974;84;21124;-68
2023/09/04 06:41:11;;;;;;;11.18;5.30;;;;;;;20.39;57.93;100803.05;1684852;84;21098;-68
2023/09/04 06:43:40;;;;;;;7.62;5.30;;;;;;;20.45;57.83;100804.83;1661568;85;21082;-67
2023/09/04 06:46:09;;;;;;;10.70;5.22;;;;;;;20.52;57.70;100806.89;1685009;84;21082;-67
2023/09/04 06:48:39;;;;;;;6.42;4.65;;;;;;;20.58;57.67;100808.66;1684958;85;21091;-67
2023/09/04 06:51:09;;;;;;;8.40;4.67;;;;;;;20.69;57.39;100810.21;1684695;84;21090;-68
2023/09/04 06:53:38;;;;;;;7.78;5.00;;;;;;;20.77;57.04;100812.56;1683841;85;21094;-69
2023/09/04 06:56:07;;;;;;;8.85;4.65;;;;;;;20.83;56.38;100814.36;1684882;84;21066;-67
2023/09/04 06:58:36;;;;;;;6.53;4.65;;;;;;;20.89;56.00;100817.52;1684697;84;21059;-68
2023/09/04 07:01:04;;;;;;;7.75;4.70;;;;;;;20.92;56.13;100820.34;1684726;84;21541;-68
2023/09/04 07:03:34;;;;;;;9.88;5.33;;;;;;;20.94;55.94;100813.96;1684903;84;21078;-68
2023/09/04 07:06:03;;;;;;;7.25;4.78;;;;;;;20.98;56.07;100820.16;1685049;85;21078;-68
2023/09/04 07:08:32;;;;;;;8.73;4.78;;;;;;;21.01;56.17;100818.80;1684894;84;21495;-66
2023/09/04 07:11:02;;;;;;;12.45;5.33;;;;;;;21.05;56.06;100820.81;1684757;84;21552;-66
2023/09/04 07:13:32;;;;;;;9.73;5.40;;;;;;;21.07;56.13;100821.95;1684967;85;21031;-67
2023/09/04 07:16:02;;;;;;;8.00;4.62;;;;;;;21.09;55.41;100827.56;1684886;84;21070;-68
2023/09/04 07:18:32;;;;;;;8.40;5.10;;;;;;;21.14;55.40;100830.42;1684878;84;21125;-67
2023/09/04 07:21:01;;;;;;;8.45;5.12;;;;;;;21.23;55.68;100832.80;1684892;84;21152;-67
2023/09/04 07:23:32;;;;;;;10.20;4.70;;;;;;;21.29;54.96;100828.98;1684945;85;21066;-67
2023/09/04 07:26:02;;;;;;;9.58;4.55;;;;;;;21.34;55.04;100825.70;1684846;85;21059;-70
2023/09/04 07:28:31;;;;;;;6.58;4.40;;;;;;;21.41;54.77;100831.09;1685055;84;21070;-67
2023/09/04 07:31:18;;;;;;;10.15;4.83;;;;;;;21.48;54.61;100830.37;1661860;85;21067;-67
2023/09/04 07:33:48;;;;;;;7.75;4.87;;;;;;;21.57;54.64;100834.95;1676531;85;21114;-67
2023/09/04 07:36:17;;;;;;;10.35;5.28;;;;;;;21.67;54.85;100839.26;1684912;85;21102;-67
2023/09/04 07:38:46;;;;;;;6.75;4.62;;;;;;;21.74;54.85;100832.38;1684835;85;21034;-67
2023/09/04 07:41:14;;;;;;;9.68;5.35;;;;;;;21.86;54.32;100832.78;1684955;85;21483;-67
2023/09/04 07:43:43;;;;;;;7.72;4.42;;;;;;;21.95;54.21;100834.00;1684626;85;21059;-67
2023/09/04 07:46:13;;;;;;;8.08;4.00;;;;;;;22.02;53.76;100840.21;1684918;85;21022;-68
2023/09/04 07:48:42;;;;;;;6.12;4.40;;;;;;;22.17;53.00;100840.98;1685038;84;21126;-67
2023/09/04 07:51:11;;;;;;;8.73;4.97;;;;;;;22.26;52.76;100844.43;1684816;85;21087;-68
2023/09/04 07:53:42;;;;;;;10.60;5.70;;;;;;;22.35;52.56;100834.47;1681322;85;21533;-68
2023/09/04 07:56:11;;;;;;;12.73;6.10;;;;;;;22.44;52.14;100836.22;1683415;85;21101;-66
2023/09/04 07:58:41;;;;;;;6.50;4.60;;;;;;;22.55;52.21;100839.94;1676786;84;21083;-68
2023/09/04 08:01:17;;;;;;;10.03;6.72;;;;;;;22.67;51.88;100843.39;1656987;85;21113;-65
2023/09/04 08:03:48;;;;;;;10.90;5.33;;;;;;;22.81;51.32;100844.69;1656882;85;21079;-67
2023/09/04 08:06:17;;;;;;;8.70;4.97;;;;;;;22.94;51.08;100847.57;1657089;85;21047;-70
2023/09/04 08:08:46;;;;;;;7.20;4.90;;;;;;;23.02;50.70;100846.52;1657107;85;21143;-66
2023/09/04 08:11:15;;;;;;;6.35;4.30;;;;;;;23.10;50.56;100843.77;1657115;85;21062;-69
2023/09/04 08:13:44;;;;;;;12.28;4.58;;;;;;;23.13;50.29;100841.83;1656954;86;21069;-68
2023/09/04 08:16:14;;;;;;;8.90;5.15;;;;;;;23.11;50.59;100846.84;1656933;86;21047;-67
2023/09/04 08:18:43;;;;;;;7.75;4.58;;;;;;;23.11;50.48;100849.64;1651694;86;21102;-67
2023/09/04 08:21:13;;;;;;;6.00;4.30;;;;;;;23.12;50.29;100847.69;1649576;85;21092;-66
2023/09/04 08:23:41;;;;;;;6.87;4.45;;;;;;;23.14;50.43;100855.25;1649337;86;21576;-69
2023/09/04 08:26:15;;;;;;;6.33;3.75;;;;;;;23.23;50.41;100850.83;1649369;85;21093;-68
2023/09/04 08:28:44;;;;;;;9.88;4.28;;;;;;;23.29;50.28;100854.78;1649423;86;21129;-69
2023/09/04 08:31:14;;;;;;;7.62;4.53;;;;;;;23.42;49.66;100849.84;1649517;87;21031;-68
2023/09/04 08:33:45;;;;;;;8.45;3.92;;;;;;;23.55;49.40;100849.38;1649647;87;21067;-68
2023/09/04 08:36:14;;;;;;;9.65;4.40;;;;;;;23.70;48.68;100851.69;1664137;85;21091;-68
2023/09/04 08:38:43;;;;;;;6.50;3.90;;;;;;;23.89;48.22;100857.63;1676346;85;21106;-69
2023/09/04 08:41:15;;;;;;;8.38;3.70;;;;;;;24.10;47.27;100843.16;1675326;84;21085;-71
2023/09/04 08:43:45;;;;;;;5.90;3.72;;;;;;;24.32;46.64;100846.58;1675392;85;21522;-70
2023/09/04 08:46:17;;;;;;;7.10;3.60;;;;;;;24.57;45.61;100847.72;1659548;85;21106;-67
2023/09/04 08:48:46;;;;;;;7.20;3.65;;;;;;;24.84;45.06;100848.30;1676873;85;21075;-70
2023/09/04 08:51:16;;;;;;;6.25;3.52;;;;;;;25.10;44.54;100853.91;1676749;85;21170;-71
2023/09/04 08:53:49;;;;;;;5.85;3.40;;;;;;;25.33;43.65;100849.08;1672534;84;21059;-69
2023/09/04 08:56:17;;;;;;;6.00;3.30;;;;;;;25.48;43.02;100852.43;1671787;86;21477;-69
2023/09/04 08:58:47;;;;;;;6.90;3.37;;;;;;;25.54;42.37;100845.11;1671844;86;21463;-68
2023/09/04 09:01:16;;;;;;;9.78;3.50;;;;;;;25.57;41.96;100851.55;1671885;86;21158;-68
2023/09/04 09:03:48;;;;;;;6.05;3.52;;;;;;;25.58;41.50;100853.23;1671652;86;21106;-70
2023/09/04 09:06:17;;;;;;;8.00;5.00;;;;;;;25.54;41.43;100854.09;1671629;84;21086;-69
2023/09/04 09:08:47;;;;;;;7.03;4.47;;;;;;;25.47;41.51;100854.95;1671793;86;21068;-71
2023/09/04 09:11:17;;;;;;;6.17;3.45;;;;;;;25.41;41.32;100851.33;1676613;85;21150;-69
2023/09/04 09:13:47;;;;;;;6.92;3.22;;;;;;;25.26;41.64;100853.59;1676894;85;21098;-68
2023/09/04 09:16:20;;;;;;;7.50;4.03;;;;;;;25.14;41.97;100850.81;1677003;84;21122;-70
2023/09/04 09:18:49;;;;;;;4.62;3.00;;;;;;;25.00;42.09;100853.36;1681412;84;21146;-69
2023/09/04 09:21:33;;;;;;;5.65;3.35;;;;;;;24.87;42.02;100842.12;1684753;85;21091;-68
2023/09/04 09:24:15;;;;;;;4.83;3.02;;;;;;;24.75;42.27;100849.98;1662201;85;21050;-69
2023/09/04 09:26:47;;;;;;;5.45;3.20;;;;;;;24.65;41.81;100856.97;1684683;85;21070;-70
2023/09/04 09:29:17;;;;;;;4.83;2.83;;;;;;;24.61;41.88;100851.64;1661286;84;21114;-70
2023/09/04 09:31:49;;;;;;;5.65;3.12;;;;;;;24.62;41.94;100853.33;1684698;84;21058;-70
2023/09/04 09:34:18;;;;;;;4.08;2.98;;;;;;;24.63;42.04;100852.20;1661219;85;21083;-69
2023/09/04 09:36:48;;;;;;;3.80;2.67;;;;;;;24.64;41.61;100850.52;1684489;84;21090;-71
2023/09/04 09:39:17;;;;;;;8.68;3.33;;;;;;;24.65;41.52;100847.16;1684638;84;21114;-70
2023/09/04 09:41:48;;;;;;;6.75;3.10;;;;;;;24.64;41.31;100843.52;1684366;85;21047;-69
2023/09/04 09:44:18;;;;;;;6.92;3.77;;;;;;;24.63;41.08;100850.80;1684711;85;21046;-70
2023/09/04 09:46:47;;;;;;;5.78;3.33;;;;;;;24.62;40.97;100855.56;1684893;84;21485;-68
2023/09/04 09:49:18;;;;;;;6.37;2.90;;;;;;;24.69;40.75;100853.88;1639760;85;21105;-70
2023/09/04 09:51:54;;;;;;;5.55;2.90;;;;;;;24.74;40.20;100858.68;1684492;84;21078;-69
2023/09/04 09:54:46;;;;;;;4.05;2.60;;;;;;;24.76;40.42;100855.03;1684875;85;21109;-69
2023/09/04 09:57:17;;;;;;;5.10;3.00;;;;;;;24.79;40.09;100853.91;1684451;85;21244;-69
2023/09/04 09:59:49;;;;;;;5.87;2.98;;;;;;;24.79;40.31;100852.51;1684431;85;21025;-68
2023/09/04 10:02:23;;;;;;;4.70;3.02;;;;;;;24.83;40.17;100849.42;1684538;85;21458;-69
2023/09/04 10:04:52;;;;;;;6.35;3.08;;;;;;;24.84;39.95;100853.06;1684477;84;21466;-68
2023/09/04 10:07:28;;;;;;;3.95;2.83;;;;;;;24.83;40.01;100855.59;1684553;84;21033;-66
2023/09/04 10:10:07;;;;;;;4.53;2.67;;;;;;;24.74;39.98;100851.11;1684874;85;21046;-66
2023/09/04 10:12:46;;;;;;;3.62;2.70;;;;;;;24.74;39.98;100851.11;1684811;84;21399;-67
2023/09/04 10:15:25;;;;;;;5.35;2.60;;;;;;;24.68;40.29;100855.00;1684454;84;21069;-67
2023/09/04 10:18:10;;;;;;;5.20;2.83;;;;;;;24.67;40.75;100850.52;1683104;84;21046;-67
2023/09/04 10:20:40;;;;;;;5.47;3.00;;;;;;;24.62;41.64;100856.97;1671725;85;21082;-67
2023/09/04 10:23:10;;;;;;;4.42;2.95;;;;;;;24.58;42.00;100857.80;1632933;86;21097;-66
2023/09/04 10:26:14;;;;;;;5.05;3.45;;;;;;;24.56;42.11;100864.25;1671455;84;21035;-68
2023/09/04 10:28:50;;;;;;;5.87;3.05;;;;;;;24.52;42.77;100872.38;1671868;84;21467;-65
2023/09/04 10:31:19;;;;;;;6.33;3.22;;;;;;;24.53;43.57;100871.25;1672022;86;21491;-65
2023/09/04 10:33:50;;;;;;;5.12;3.50;;;;;;;24.52;43.93;100875.17;1671590;86;21537;-67
2023/09/04 10:36:20;;;;;;;7.95;3.80;;;;;;;24.53;44.15;100863.41;1671752;84;21038;-67
2023/09/04 10:38:51;;;;;;;7.75;3.20;;;;;;;24.53;44.13;100863.41;1671617;86;21031;-68
2023/09/04 10:41:21;;;;;;;6.03;3.50;;;;;;;24.56;44.18;100851.64;1671791;86;21074;-68
2023/09/04 10:43:50;;;;;;;8.43;3.45;;;;;;;24.60;43.91;100858.37;1673296;85;21070;-67
2023/09/04 10:46:22;;;;;;;7.20;3.35;;;;;;;24.61;43.79;100852.48;1676800;85;21063;-67
2023/09/04 10:48:54;;;;;;;6.50;3.40;;;;;;;24.64;43.69;100853.88;1676877;85;21063;-66
2023/09/04 10:51:36;;;;;;;6.75;3.20;;;;;;;24.64;43.71;100855.28;1676899;85;21027;-65
2023/09/04 10:54:20;;;;;;;5.70;3.27;;;;;;;24.62;43.50;100858.92;1676980;85;21098;-67
2023/09/04 10:56:59;;;;;;;6.87;3.33;;;;;;;24.57;43.59;100855.56;1676603;85;21131;-66
2023/09/04 10:59:28;;;;;;;6.40;3.30;;;;;;;24.55;43.45;100853.60;1676854;85;21039;-66
2023/09/04 11:01:57;;;;;;;5.30;3.35;;;;;;;24.56;43.46;100855.28;1659605;85;21090;-65
2023/09/04 11:04:36;;;;;;;6.87;3.10;;;;;;;24.58;43.15;100857.80;1676741;85;21198;-66
2023/09/04 11:07:25;;;;;;;6.00;3.37;;;;;;;24.58;43.08;100855.00;1676511;85;21178;-66
2023/09/04 11:10:14;;;;;;;6.00;3.17;;;;;;;24.57;43.00;100853.33;1676960;85;21525;-67
2023/09/04 11:12:45;;;;;;;5.70;2.90;;;;;;;24.59;42.74;100851.92;1676750;85;21115;-67
2023/09/04 11:15:17;;;;;;;5.28;2.92;;;;;;;24.63;42.83;100852.20;1676954;85;21136;-66
2023/09/04 11:17:49;;;;;;;5.12;3.08;;;;;;;24.68;42.60;100858.37;1676915;85;21458;-66
2023/09/04 11:20:24;;;;;;;6.10;3.22;;;;;;;24.66;42.65;100860.05;1676770;84;21507;-66
2023/09/04 11:22:55;;;;;;;6.87;3.40;;;;;;;24.68;42.55;100863.41;1660343;85;21147;-66
2023/09/04 11:25:25;;;;;;;5.25;2.87;;;;;;;24.74;42.40;100852.52;1676749;85;21557;-66
2023/09/04 11:27:55;;;;;;;5.33;3.10;;;;;;;24.78;42.39;100853.63;1676604;85;21545;-67
2023/09/04 11:30:26;;;;;;;7.85;3.05;;;;;;;24.82;42.19;100861.76;1676806;84;21081;-65
2023/09/04 11:32:59;;;;;;;4.72;2.52;;;;;;;24.85;42.06;100847.73;1676936;85;21063;-65
2023/09/04 11:35:28;;;;;;;4.85;3.30;;;;;;;24.85;42.32;100862.59;1676776;85;21305;-67
2023/09/04 11:37:57;;;;;;;7.65;3.37;;;;;;;24.88;42.51;100856.98;1676898;85;21067;-67
2023/09/04 11:40:32;;;;;;;7.62;3.10;;;;;;;24.91;42.51;100861.47;1676767;85;21110;-67